Time;durP1;ratioP1;P1;durP2;ratioP2;P2;SDS_P1;SDS_P2;PMS_P1;PMS_P2;Temp;Humidity;BMP_temperature;BMP_pressure;BME280_temperature;BME280_humidity;BME280_pressure;Samples;Min_cycle;Max_cycle;Signal;HPM_P1;HPM_P2
2022/10/09 00:01:02;;;;;;;30.43;27.53;;;;;;;7.26;100.00;102253.28;5034159;28;20482;-53
2022/10/09 00:03:29;;;;;;;28.97;27.00;;;;;;;7.22;100.00;102253.56;5033916;28;20456;-51
2022/10/09 00:05:57;;;;;;;28.90;26.77;;;;;;;7.19;100.00;102256.47;5034352;28;20494;-51
2022/10/09 00:08:25;;;;;;;28.57;27.07;;;;;;;7.16;100.00;102259.41;5034226;28;20832;-50
2022/10/09 00:10:54;;;;;;;28.57;26.67;;;;;;;7.14;100.00;102255.19;5033752;28;20456;-47
2022/10/09 00:13:22;;;;;;;29.60;27.60;;;;;;;7.09;100.00;102250.31;5033872;28;20490;-49
2022/10/09 00:15:50;;;;;;;29.43;27.50;;;;;;;7.06;100.00;102258.53;5034021;28;20992;-52
2022/10/09 00:18:18;;;;;;;29.40;27.40;;;;;;;7.04;100.00;102260.50;5033378;28;20526;-51
2022/10/09 00:20:47;;;;;;;30.07;28.30;;;;;;;7.01;100.00;102260.78;5033537;28;20498;-49
2022/10/09 00:23:16;;;;;;;30.37;28.27;;;;;;;7.02;100.00;102264.25;5033379;28;20472;-50
2022/10/09 00:25:51;;;;;;;29.23;27.70;;;;;;;7.00;100.00;102268.84;5034103;28;20463;-53
2022/10/09 00:28:19;;;;;;;30.60;28.17;;;;;;;6.98;100.00;102268.16;5033902;28;20431;-51
2022/10/09 00:30:47;;;;;;;29.23;27.20;;;;;;;6.96;100.00;102272.78;5033680;28;20460;-49
2022/10/09 00:33:15;;;;;;;28.37;26.80;;;;;;;6.93;100.00;102271.19;5033370;28;20459;-49
2022/10/09 00:35:43;;;;;;;30.40;28.00;;;;;;;6.91;100.00;102267.84;5033684;28;20474;-53
2022/10/09 00:38:10;;;;;;;28.67;26.93;;;;;;;6.90;100.00;102279.44;5033573;28;20498;-51
2022/10/09 00:40:39;;;;;;;29.63;27.20;;;;;;;6.91;100.00;102281.13;5033682;28;20865;-50
2022/10/09 00:43:12;;;;;;;29.37;27.17;;;;;;;6.92;100.00;102282.81;5033067;28;20495;-52
2022/10/09 00:45:43;;;;;;;29.60;27.77;;;;;;;6.94;100.00;102282.66;5033488;28;20498;-51
2022/10/09 00:48:12;;;;;;;28.77;27.17;;;;;;;6.91;100.00;102275.81;5033401;28;20440;-49
2022/10/09 00:50:43;;;;;;;30.33;28.13;;;;;;;6.91;100.00;102282.94;5033454;28;20510;-52
2022/10/09 00:53:15;;;;;;;30.27;27.67;;;;;;;6.89;100.00;102280.41;5033054;28;20514;-51
2022/10/09 00:55:43;;;;;;;29.43;27.43;;;;;;;6.88;100.00;102292.00;5033487;28;20428;-55
2022/10/09 00:58:12;;;;;;;28.07;26.40;;;;;;;6.86;100.00;102288.66;5033395;28;20482;-49
2022/10/09 01:00:41;;;;;;;28.67;27.07;;;;;;;6.88;100.00;102292.00;5032952;28;20518;-50
2022/10/09 01:03:09;;;;;;;29.83;28.00;;;;;;;6.87;100.00;102297.44;5032520;28;20527;-45
2022/10/09 01:05:48;;;;;;;28.60;26.80;;;;;;;6.86;100.00;102293.94;5033327;28;20467;-48
2022/10/09 01:08:20;;;;;;;29.10;27.30;;;;;;;6.85;100.00;102286.97;5033029;28;20466;-48
2022/10/09 01:10:54;;;;;;;60.73;29.53;;;;;;;6.85;100.00;102284.31;5032829;28;20448;-50
2022/10/09 01:13:28;;;;;;;52.03;28.37;;;;;;;6.86;100.00;102287.81;5032444;28;20518;-48
2022/10/09 01:16:00;;;;;;;65.10;32.23;;;;;;;6.86;100.00;102288.66;5033155;28;20474;-50
2022/10/09 01:18:37;;;;;;;64.90;29.73;;;;;;;6.89;100.00;102284.88;5032971;28;20440;-48
2022/10/09 01:21:10;;;;;;;30.50;27.83;;;;;;;6.95;100.00;102282.53;5032440;28;21151;-48
2022/10/09 01:23:52;;;;;;;62.80;29.20;;;;;;;7.02;100.00;102294.25;5032249;28;20518;-48
2022/10/09 01:26:34;;;;;;;66.40;29.00;;;;;;;7.07;100.00;102288.56;5032959;28;20782;-50
2022/10/09 01:29:07;;;;;;;69.67;30.67;;;;;;;7.09;100.00;102289.25;5032727;28;20437;-51
2022/10/09 01:31:39;;;;;;;71.50;31.40;;;;;;;7.10;100.00;102283.00;5031763;28;20448;-49
2022/10/09 01:34:08;;;;;;;75.23;32.10;;;;;;;7.08;100.00;102288.41;5032096;28;20468;-52
2022/10/09 01:36:36;;;;;;;71.87;31.70;;;;;;;7.09;100.00;102291.91;5032732;28;20486;-48
2022/10/09 01:39:07;;;;;;;70.33;31.13;;;;;;;7.05;100.00;102286.03;5032615;28;20472;-48
2022/10/09 01:41:35;;;;;;;63.30;30.43;;;;;;;7.04;100.00;102287.03;5032272;28;20869;-47
2022/10/09 01:44:14;;;;;;;57.90;29.67;;;;;;;7.03;100.00;102292.44;5032012;28;20456;-46
2022/10/09 01:46:42;;;;;;;48.80;28.37;;;;;;;7.00;100.00;102284.75;5032287;28;20455;-46
2022/10/09 01:49:17;;;;;;;30.20;27.10;;;;;;;6.97;100.00;102296.50;5032526;28;20432;-49
2022/10/09 01:51:51;;;;;;;35.53;29.20;;;;;;;6.95;100.00;102293.16;5032167;28;20456;-46
2022/10/09 01:54:29;;;;;;;47.70;29.20;;;;;;;6.93;100.00;102297.72;5031862;28;20815;-49
2022/10/09 01:57:02;;;;;;;45.63;28.50;;;;;;;6.90;100.00;102290.03;5032267;28;20436;-47
2022/10/09 01:59:36;;;;;;;29.30;26.83;;;;;;;6.90;100.00;102295.34;5032360;28;20495;-50
2022/10/09 02:02:04;;;;;;;30.10;27.30;;;;;;;6.88;100.00;102292.00;5031763;28;20460;-47
2022/10/09 02:04:33;;;;;;;30.93;27.57;;;;;;;6.88;100.00;102292.00;5031580;28;20468;-46
2022/10/09 02:07:01;;;;;;;51.60;29.10;;;;;;;6.87;100.00;102300.09;5032117;28;20494;-50
2022/10/09 02:09:30;;;;;;;52.10;28.37;;;;;;;6.85;100.00;102300.22;5032016;28;20436;-48
2022/10/09 02:12:04;;;;;;;41.43;28.17;;;;;;;6.83;100.00;102294.22;5031665;28;20463;-47
2022/10/09 02:14:33;;;;;;;42.60;28.57;;;;;;;6.83;100.00;102298.69;5031555;28;20464;-49
2022/10/09 02:17:05;;;;;;;52.07;29.30;;;;;;;6.81;100.00;102303.28;5032011;28;20494;-47
2022/10/09 02:19:38;;;;;;;61.40;30.10;;;;;;;6.78;100.00;102300.91;5031779;28;20472;-48
2022/10/09 02:22:12;;;;;;;76.70;34.20;;;;;;;6.75;100.00;102317.09;5031430;28;20443;-48
2022/10/09 02:24:42;;;;;;;43.87;28.60;;;;;;;6.73;100.00;102314.53;5031415;28;20522;-47
2022/10/09 02:27:11;;;;;;;38.33;29.50;;;;;;;6.70;100.00;102314.81;5031731;28;20432;-46
2022/10/09 02:29:41;;;;;;;32.53;29.30;;;;;;;6.68;100.00;102317.63;5031822;28;20432;-47
2022/10/09 02:32:09;;;;;;;30.67;28.07;;;;;;;6.65;100.00;102317.88;5031529;28;20448;-47
2022/10/09 02:34:37;;;;;;;35.63;28.90;;;;;;;6.63;100.00;102319.00;5031079;28;20469;-52
2022/10/09 02:37:05;;;;;;;30.53;28.00;;;;;;;6.62;100.00;102319.94;5031673;28;20440;-53
2022/10/09 02:39:33;;;;;;;31.53;28.90;;;;;;;6.59;100.00;102317.56;5031733;28;20819;-50
2022/10/09 02:42:01;;;;;;;30.63;28.13;;;;;;;6.56;100.00;102318.66;5035258;28;20864;-49
2022/10/09 02:44:29;;;;;;;31.20;28.40;;;;;;;6.55;100.00;102316.13;5037813;28;21027;-49
2022/10/09 02:46:57;;;;;;;31.77;29.23;;;;;;;6.53;100.00;102328.69;5038151;28;20841;-50
2022/10/09 02:49:25;;;;;;;29.93;27.93;;;;;;;6.52;100.00;102321.69;5038058;28;21015;-48
2022/10/09 02:51:53;;;;;;;30.50;27.50;;;;;;;6.50;100.00;102324.50;5037855;28;20456;-53
2022/10/09 02:54:20;;;;;;;29.63;27.73;;;;;;;6.49;100.00;102324.63;5037657;28;20468;-48
2022/10/09 02:56:48;;;;;;;30.07;28.27;;;;;;;6.47;100.00;102329.22;5038236;28;20482;-47
2022/10/09 02:59:15;;;;;;;29.10;27.50;;;;;;;6.45;100.00;102328.53;5038145;28;20860;-48
2022/10/09 03:01:44;;;;;;;28.77;27.10;;;;;;;6.44;100.00;102329.47;5037578;28;20464;-50
2022/10/09 03:04:13;;;;;;;30.30;28.13;;;;;;;6.41;100.00;102329.75;5037590;28;20468;-51
2022/10/09 03:06:41;;;;;;;30.97;28.50;;;;;;;6.38;100.00;102330.00;5038172;28;20439;-48
2022/10/09 03:09:09;;;;;;;30.77;28.50;;;;;;;6.38;100.00;102320.25;5037986;28;20440;-51
2022/10/09 03:11:36;;;;;;;30.57;28.33;;;;;;;6.37;100.00;102323.00;5037732;28;20509;-51
2022/10/09 03:14:04;;;;;;;30.50;28.37;;;;;;;6.38;100.00;102324.69;5037275;28;20460;-47
2022/10/09 03:16:31;;;;;;;29.80;27.57;;;;;;;6.37;100.00;102337.09;5037883;28;20439;-49
2022/10/09 03:18:59;;;;;;;31.40;28.80;;;;;;;6.38;100.00;102335.31;5037981;28;20439;-47
2022/10/09 03:21:28;;;;;;;31.13;28.43;;;;;;;6.38;100.00;102335.31;5034855;28;20534;-46
2022/10/09 03:23:56;;;;;;;32.13;29.00;;;;;;;6.36;100.00;102338.06;5037441;28;20460;-47
2022/10/09 03:26:26;;;;;;;30.90;28.00;;;;;;;6.36;100.00;102335.41;5037961;28;20513;-52
2022/10/09 03:28:55;;;;;;;32.53;28.60;;;;;;;6.35;100.00;102336.41;5037754;28;20439;-52
2022/10/09 03:31:25;;;;;;;37.80;28.90;;;;;;;6.34;100.00;102345.31;5037674;28;20494;-47
2022/10/09 03:34:13;;;;;;;44.10;29.33;;;;;;;6.35;100.00;102343.50;5037407;28;20534;-50
2022/10/09 03:36:42;;;;;;;53.30;29.10;;;;;;;6.35;100.00;102344.34;5037866;28;20428;-51
2022/10/09 03:39:10;;;;;;;30.80;28.37;;;;;;;6.36;100.00;102348.66;5037632;28;20502;-47
2022/10/09 03:41:37;;;;;;;30.27;27.90;;;;;;;6.36;100.00;102348.66;5037588;28;20533;-48
2022/10/09 03:44:05;;;;;;;29.83;27.40;;;;;;;6.36;100.00;102356.59;5037407;28;20518;-47
2022/10/09 03:46:33;;;;;;;31.23;28.03;;;;;;;6.37;100.00;102354.81;5037791;28;20436;-48
2022/10/09 03:49:00;;;;;;;31.83;28.60;;;;;;;6.38;100.00;102354.69;5037640;28;20825;-49
2022/10/09 03:51:28;;;;;;;33.27;28.87;;;;;;;6.41;100.00;102353.59;5037338;28;20506;-48
2022/10/09 03:53:57;;;;;;;31.73;28.53;;;;;;;6.44;100.00;102358.63;5033883;28;20471;-46
2022/10/09 03:56:24;;;;;;;35.00;28.03;;;;;;;6.49;100.00;102353.75;5034633;28;20436;-49
2022/10/09 03:58:52;;;;;;;35.63;32.43;;;;;;;6.52;100.00;102358.81;5034570;28;20440;-44
2022/10/09 04:01:20;;;;;;;30.00;28.20;;;;;;;6.55;100.00;102358.53;5034291;28;20533;-46
2022/10/09 04:03:47;;;;;;;30.70;28.60;;;;;;;6.55;100.00;102354.09;5033943;28;20571;-48
2022/10/09 04:06:16;;;;;;;30.73;28.23;;;;;;;6.57;100.00;102359.28;5034174;28;20491;-50
2022/10/09 04:08:43;;;;;;;30.80;27.90;;;;;;;6.58;100.00;102366.22;5034710;28;20494;-52
2022/10/09 04:11:12;;;;;;;65.90;38.93;;;;;;;6.59;100.00;102362.63;5034139;28;20506;-52
2022/10/09 04:13:40;;;;;;;80.27;74.93;;;;;;;6.57;100.00;102356.63;5033573;28;20460;-50
2022/10/09 04:16:11;;;;;;;59.63;36.73;;;;;;;6.57;100.00;102372.53;5034094;28;20436;-53
2022/10/09 04:18:39;;;;;;;61.93;30.37;;;;;;;6.57;100.00;102369.88;5034067;28;20440;-54
2022/10/09 04:21:07;;;;;;;67.10;30.80;;;;;;;6.55;100.00;102364.69;5033419;28;20514;-51
2022/10/09 04:23:35;;;;;;;49.80;45.27;;;;;;;6.55;100.00;102362.03;5033620;28;20876;-52
2022/10/09 04:26:02;;;;;;;47.97;43.33;;;;;;;6.55;100.00;102366.50;5033968;28;20448;-53
2022/10/09 04:28:32;;;;;;;31.73;28.50;;;;;;;6.53;100.00;102369.28;5033961;28;20494;-54
2022/10/09 04:31:00;;;;;;;37.57;33.93;;;;;;;6.52;100.00;102364.94;5033491;28;20452;-49
2022/10/09 04:33:28;;;;;;;31.97;29.13;;;;;;;6.50;100.00;102371.34;5033211;28;20468;-48
2022/10/09 04:35:56;;;;;;;43.47;39.97;;;;;;;6.48;100.00;102365.34;5033996;28;20494;-51
2022/10/09 04:38:24;;;;;;;84.00;69.00;;;;;;;6.45;100.00;102373.56;5033718;28;20950;-52
2022/10/09 04:40:56;;;;;;;35.67;29.17;;;;;;;6.41;100.00;102367.69;5033375;28;20479;-55
2022/10/09 04:43:24;;;;;;;58.43;31.73;;;;;;;6.40;100.00;102371.28;5033168;28;21016;-52
2022/10/09 04:45:53;;;;;;;26.57;25.47;;;;;;;6.39;100.00;102369.59;5033450;28;20436;-54
2022/10/09 04:48:21;;;;;;;26.67;25.47;;;;;;;6.39;100.00;102371.44;5033561;28;20546;-52
2022/10/09 04:50:49;;;;;;;26.50;25.30;;;;;;;6.38;100.00;102378.53;5033262;28;20494;-54
2022/10/09 04:53:16;;;;;;;27.03;25.73;;;;;;;6.37;100.00;102373.34;5033104;28;20463;-54
2022/10/09 04:55:45;;;;;;;27.20;25.90;;;;;;;6.36;100.00;102374.34;5033504;28;20436;-53
2022/10/09 04:58:13;;;;;;;27.17;25.87;;;;;;;6.35;100.00;102368.19;5033391;28;20436;-51
2022/10/09 05:00:42;;;;;;;26.80;25.50;;;;;;;6.35;100.00;102368.19;5033152;28;20522;-52
2022/10/09 05:03:11;;;;;;;26.33;25.13;;;;;;;6.36;100.00;102371.69;5033023;28;20467;-51
2022/10/09 05:05:39;;;;;;;26.00;24.70;;;;;;;6.35;100.00;102376.16;5033169;28;20498;-54
2022/10/09 05:08:07;;;;;;;26.70;25.50;;;;;;;6.35;100.00;102375.31;5033325;28;20432;-52
2022/10/09 05:10:34;;;;;;;27.30;26.00;;;;;;;6.33;100.00;102378.06;5033066;28;20510;-52
2022/10/09 05:13:02;;;;;;;26.97;25.67;;;;;;;6.33;100.00;102364.81;5032355;28;21034;-54
2022/10/09 05:15:29;;;;;;;27.27;25.97;;;;;;;6.33;100.00;102374.59;5032951;28;20436;-54
2022/10/09 05:17:57;;;;;;;26.93;25.63;;;;;;;6.32;100.00;102375.56;5033145;28;20510;-52
2022/10/09 05:20:26;;;;;;;26.67;25.37;;;;;;;6.32;100.00;102380.84;5032645;28;20486;-50
2022/10/09 05:22:54;;;;;;;26.20;24.90;;;;;;;6.31;100.00;102376.53;5032181;28;20460;-52
2022/10/09 05:25:21;;;;;;;26.30;25.00;;;;;;;6.31;100.00;102381.81;5032814;28;20439;-49
2022/10/09 05:27:49;;;;;;;26.10;24.80;;;;;;;6.32;100.00;102380.84;5032940;28;20447;-52
2022/10/09 05:30:16;;;;;;;26.33;25.03;;;;;;;6.31;100.00;102377.38;5032708;28;20440;-47
2022/10/09 05:32:44;;;;;;;27.27;25.97;;;;;;;6.35;100.00;102377.94;5032014;28;20456;-49
2022/10/09 05:35:11;;;;;;;26.53;25.23;;;;;;;6.36;100.00;102379.66;5032753;28;20427;-49
2022/10/09 05:37:44;;;;;;;60.80;58.40;;;;;;;6.37;100.00;102387.44;5032607;28;20506;-55
2022/10/09 05:40:11;;;;;;;58.80;56.50;;;;;;;6.39;100.00;102390.78;5032529;28;20463;-52
2022/10/09 05:42:39;;;;;;;59.40;57.10;;;;;;;6.41;100.00;102388.88;5031835;28;20900;-54
2022/10/09 05:45:08;;;;;;;57.30;55.10;;;;;;;6.43;100.00;102389.59;5032409;28;20436;-53
2022/10/09 05:47:35;;;;;;;57.10;54.90;;;;;;;6.46;100.00;102386.66;5032579;28;20833;-50
2022/10/09 05:50:03;;;;;;;56.47;54.27;;;;;;;6.48;100.00;102394.50;5032559;28;20432;-54
2022/10/09 05:52:31;;;;;;;53.30;51.20;;;;;;;6.52;100.00;102396.75;5031576;28;20449;-54
2022/10/09 05:55:00;;;;;;;52.73;50.73;;;;;;;6.56;100.00;102394.69;5032348;28;20493;-53
2022/10/09 05:57:28;;;;;;;51.53;49.53;;;;;;;6.63;100.00;102395.84;5032369;28;20490;-54
2022/10/09 05:59:55;;;;;;;47.90;46.00;;;;;;;6.66;100.00;102401.72;5032281;28;20482;-54
2022/10/09 06:02:23;;;;;;;47.27;45.43;;;;;;;6.73;100.00;102402.03;5031704;28;21054;-53
2022/10/09 06:04:50;;;;;;;45.20;43.40;;;;;;;6.80;100.00;102399.72;5031753;28;20498;-55
2022/10/09 06:07:18;;;;;;;44.57;42.77;;;;;;;6.89;100.00;102399.75;5032001;28;20908;-54
2022/10/09 06:09:45;;;;;;;42.33;40.63;;;;;;;6.99;100.00;102397.16;5032386;28;20440;-52
2022/10/09 06:12:14;;;;;;;40.67;38.97;;;;;;;7.07;100.00;102395.50;5031845;28;20510;-52
2022/10/09 06:14:42;;;;;;;41.27;39.57;;;;;;;7.19;100.00;102399.75;5031532;28;21051;-53
2022/10/09 06:17:09;;;;;;;38.60;37.00;;;;;;;7.29;100.00;102407.72;5031508;28;20490;-49
2022/10/09 06:19:37;;;;;;;38.60;37.00;;;;;;;7.42;100.00;102405.69;5031747;28;20585;-49
2022/10/09 06:22:04;;;;;;;37.20;35.60;;;;;;;7.59;100.00;102412.13;5031409;28;21049;-53
2022/10/09 06:24:32;;;;;;;41.10;39.40;;;;;;;7.76;100.00;102414.13;5031396;28;20460;-47
2022/10/09 06:26:59;;;;;;;38.27;36.67;;;;;;;7.94;100.00;102406.31;5031861;28;20440;-51
2022/10/09 06:29:29;;;;;;;39.40;37.80;;;;;;;8.08;100.00;102416.53;5031811;28;20440;-47
2022/10/09 06:31:57;;;;;;;36.77;35.27;;;;;;;8.21;100.00;102406.47;5031508;28;20478;-50
2022/10/09 06:34:24;;;;;;;36.67;35.10;;;;;;;8.31;100.00;102410.81;5030115;28;20459;-46
2022/10/09 06:36:52;;;;;;;34.63;33.13;;;;;;;8.38;100.00;102413.75;5030287;28;20501;-54
2022/10/09 06:39:20;;;;;;;34.70;33.20;;;;;;;8.49;100.00;102415.41;5030490;28;20444;-53
2022/10/09 06:41:47;;;;;;;34.93;33.43;;;;;;;8.59;100.00;102410.91;5011613;28;20476;-53
2022/10/09 06:44:15;;;;;;;34.80;33.30;;;;;;;8.60;100.00;102420.59;5011485;28;20480;-52
2022/10/09 06:46:48;;;;;;;36.70;35.20;;;;;;;8.65;100.00;102421.84;5011771;28;20452;-52
2022/10/09 06:49:16;;;;;;;34.93;33.43;;;;;;;8.75;100.00;102419.16;5012062;28;20429;-55
2022/10/09 06:51:43;;;;;;;36.50;35.00;;;;;;;8.89;100.00;102410.72;5011767;28;20499;-52
2022/10/09 06:54:13;;;;;;;38.87;37.27;;;;;;;8.99;100.00;102414.16;5011029;28;20449;-54
2022/10/09 06:56:41;;;;;;;38.23;36.63;;;;;;;9.08;100.00;102417.78;5011833;28;20425;-53
2022/10/09 06:59:10;;;;;;;39.97;38.37;;;;;;;9.21;100.00;102419.13;5011716;28;20436;-52
2022/10/09 07:01:38;;;;;;;41.20;39.50;;;;;;;9.33;100.00;102419.75;5011496;28;20468;-54
2022/10/09 07:04:10;;;;;;;41.60;39.90;;;;;;;9.48;100.00;102410.28;5021462;28;20554;-55
2022/10/09 07:06:40;;;;;;;42.23;40.53;;;;;;;9.64;100.00;102423.81;5029793;28;20482;-55
2022/10/09 07:09:11;;;;;;;45.40;43.60;;;;;;;9.80;100.00;102415.97;5027273;28;20440;-53
2022/10/09 07:11:41;;;;;;;46.10;44.20;;;;;;;10.07;100.00;102417.72;5029500;28;20865;-49
2022/10/09 07:14:10;;;;;;;46.90;45.00;;;;;;;10.37;100.00;102417.38;5030724;28;20468;-53
2022/10/09 07:16:41;;;;;;;47.43;45.53;;;;;;;10.74;100.00;102425.16;5031353;28;20424;-52
2022/10/09 07:19:11;;;;;;;50.30;48.30;;;;;;;10.98;100.00;102419.13;5031145;28;20854;-52
2022/10/09 07:21:41;;;;;;;49.20;47.30;;;;;;;11.30;100.00;102426.44;5030413;28;20444;-48
2022/10/09 07:24:10;;;;;;;51.97;49.87;;;;;;;11.55;100.00;102428.22;5030502;28;20452;-52
2022/10/09 07:26:40;;;;;;;53.00;50.90;;;;;;;11.65;100.00;102432.41;5029707;28;20432;-47
2022/10/09 07:29:09;;;;;;;56.20;54.00;;;;;;;11.58;100.00;102431.41;5033348;28;20443;-50
2022/10/09 07:31:36;;;;;;;58.57;56.27;;;;;;;11.61;100.00;102438.25;5034773;28;20456;-50
2022/10/09 07:34:05;;;;;;;56.90;54.70;;;;;;;11.63;100.00;102442.44;5034532;28;20518;-50
2022/10/09 07:36:34;;;;;;;57.80;55.50;;;;;;;11.71;100.00;102435.50;5034376;28;20531;-53
2022/10/09 07:39:02;;;;;;;56.87;54.63;;;;;;;11.79;100.00;102440.84;5034639;28;21338;-47
2022/10/09 07:41:29;;;;;;;56.30;54.10;;;;;;;11.86;100.00;102431.16;5033318;28;20444;-48
2022/10/09 07:43:57;;;;;;;58.47;56.17;;;;;;;11.90;100.00;102448.56;5032956;28;20984;-47
2022/10/09 07:46:27;;;;;;;56.83;54.53;;;;;;;11.92;100.00;102442.03;5033485;28;20856;-47
2022/10/09 07:49:00;;;;;;;51.10;49.00;;;;;;;11.92;100.00;102452.72;5032602;28;20439;-49
2022/10/09 07:51:29;;;;;;;54.97;52.70;;;;;;;11.95;100.00;102443.53;5033722;28;20452;-53
2022/10/09 07:54:00;;;;;;;102.97;95.77;;;;;;;11.97;100.00;102454.94;5034128;28;20518;-56
2022/10/09 07:56:29;;;;;;;61.90;58.23;;;;;;;12.05;100.00;102457.63;5034636;28;20436;-53
2022/10/09 07:58:59;;;;;;;58.70;55.07;;;;;;;12.08;100.00;102451.94;5033908;28;20956;-53
2022/10/09 08:01:28;;;;;;;74.43;68.57;;;;;;;12.13;100.00;102452.28;5030354;28;20480;-53
2022/10/09 08:03:56;;;;;;;122.97;73.23;;;;;;;12.24;100.00;102451.13;5031761;28;20463;-55
2022/10/09 08:06:24;;;;;;;57.97;54.47;;;;;;;12.26;100.00;102463.31;5032752;28;20428;-54
2022/10/09 08:08:53;;;;;;;46.70;43.87;;;;;;;12.29;100.00;102457.66;5032489;28;20517;-53
2022/10/09 08:11:23;;;;;;;42.07;39.67;;;;;;;12.38;100.00;102453.13;5032955;28;20856;-54
2022/10/09 08:13:52;;;;;;;42.07;39.40;;;;;;;12.49;100.00;102450.94;5031620;28;20472;-55
2022/10/09 08:16:21;;;;;;;39.03;36.67;;;;;;;12.60;100.00;102455.97;5032391;28;20440;-54
2022/10/09 08:18:49;;;;;;;39.13;36.63;;;;;;;12.74;100.00;102455.31;5032630;28;20432;-55
2022/10/09 08:21:18;;;;;;;38.70;36.63;;;;;;;12.91;100.00;102449.91;5032527;28;20449;-54
2022/10/09 08:23:46;;;;;;;39.13;36.93;;;;;;;13.03;100.00;102460.09;5028749;28;20472;-53
2022/10/09 08:26:15;;;;;;;39.37;37.07;;;;;;;13.09;100.00;102466.63;5032034;28;20432;-51
2022/10/09 08:28:44;;;;;;;36.77;34.77;;;;;;;13.17;100.00;102463.97;5032110;28;20498;-49
2022/10/09 08:31:13;;;;;;;38.00;35.40;;;;;;;13.24;100.00;102465.75;5032612;28;20474;-51
2022/10/09 08:33:41;;;;;;;36.50;34.57;;;;;;;13.44;100.00;102463.50;5031687;28;20483;-51
2022/10/09 08:36:13;;;;;;;36.47;34.27;;;;;;;13.64;100.00;102463.94;5031386;28;20490;-52
2022/10/09 08:38:41;;;;;;;36.87;34.53;;;;;;;13.74;100.00;102464.53;5031591;28;20440;-49
2022/10/09 08:41:23;;;;;;;37.57;35.23;;;;;;;13.74;100.00;102460.00;5030657;28;20452;-48
2022/10/09 08:43:59;;;;;;;35.93;33.37;;;;;;;13.82;100.00;102456.47;5030381;28;20471;-50
2022/10/09 08:46:33;;;;;;;33.80;32.10;;;;;;;13.85;100.00;102454.28;5030547;28;20490;-51
2022/10/09 08:49:04;;;;;;;36.07;33.87;;;;;;;13.99;100.00;102458.03;5030798;28;20432;-49
2022/10/09 08:51:38;;;;;;;36.63;34.30;;;;;;;14.09;100.00;102455.13;5031883;28;21006;-52
2022/10/09 08:54:13;;;;;;;35.50;32.93;;;;;;;14.24;100.00;102447.97;5030662;28;20526;-48
2022/10/09 08:56:40;;;;;;;36.00;33.60;;;;;;;14.27;100.00;102448.47;5031002;28;20443;-53
2022/10/09 08:59:11;;;;;;;35.97;33.40;;;;;;;14.34;100.00;102453.97;5032150;28;20467;-48
2022/10/09 09:01:47;;;;;;;35.63;33.73;;;;;;;14.36;100.00;102452.78;5031547;28;20992;-48
2022/10/09 09:04:33;;;;;;;35.50;33.37;;;;;;;14.48;100.00;102463.94;5032330;28;20476;-50
2022/10/09 09:07:10;;;;;;;36.10;34.10;;;;;;;14.59;100.00;102450.06;5032826;28;20447;-54
2022/10/09 09:09:46;;;;;;;36.67;34.57;;;;;;;14.78;100.00;102454.09;5033327;28;20439;-51
2022/10/09 09:12:20;;;;;;;35.67;33.43;;;;;;;14.85;100.00;102444.28;5032724;28;20448;-48
2022/10/09 09:15:01;;;;;;;36.00;33.97;;;;;;;14.94;100.00;102456.59;5032425;28;20495;-49
2022/10/09 09:17:37;;;;;;;35.90;33.43;;;;;;;14.98;100.00;102462.44;5032937;28;20431;-50
2022/10/09 09:20:14;;;;;;;37.87;35.50;;;;;;;15.07;100.00;102459.50;5032615;28;20485;-54
2022/10/09 09:22:46;;;;;;;36.30;34.30;;;;;;;15.14;100.00;102470.34;5031875;28;20506;-54
2022/10/09 09:25:19;;;;;;;34.73;32.90;;;;;;;15.15;100.00;102456.72;5032420;28;20832;-49
2022/10/09 09:27:47;;;;;;;33.70;31.90;;;;;;;15.25;100.00;102459.97;5024769;28;20475;-53
2022/10/09 09:30:20;;;;;;;36.17;33.90;;;;;;;15.36;100.00;102456.81;5032121;28;20428;-46
2022/10/09 09:32:56;;;;;;;36.30;33.60;;;;;;;15.44;100.00;102454.00;5031906;28;20880;-51
2022/10/09 09:35:29;;;;;;;36.60;34.27;;;;;;;15.57;100.00;102452.53;5032380;28;20485;-47
2022/10/09 09:37:57;;;;;;;36.50;34.30;;;;;;;15.63;100.00;102447.25;5032712;28;20497;-51
2022/10/09 09:40:30;;;;;;;36.23;34.10;;;;;;;15.63;100.00;102441.88;5032469;28;20482;-49
2022/10/09 09:43:15;;;;;;;36.57;34.20;;;;;;;15.71;100.00;102449.81;5031787;28;20514;-47
2022/10/09 09:45:45;;;;;;;37.13;34.60;;;;;;;15.70;100.00;102444.66;5032273;28;20994;-53
2022/10/09 09:48:16;;;;;;;38.80;35.07;;;;;;;15.73;100.00;102449.66;5032285;28;20440;-49
2022/10/09 09:50:44;;;;;;;36.10;33.83;;;;;;;15.68;100.00;102449.41;5031560;28;20815;-48
2022/10/09 09:53:35;;;;;;;35.27;33.17;;;;;;;15.67;99.27;102447.72;5031699;28;20456;-46
2022/10/09 09:56:03;;;;;;;33.00;31.43;;;;;;;15.55;97.16;102441.16;5032073;28;20837;-49
2022/10/09 09:58:35;;;;;;;36.10;33.97;;;;;;;15.54;97.53;102440.31;5032031;28;20443;-50
2022/10/09 10:01:06;;;;;;;34.97;32.97;;;;;;;15.64;99.00;102435.47;5031842;28;20464;-49
2022/10/09 10:03:35;;;;;;;32.83;31.33;;;;;;;15.56;97.43;102440.94;5031786;28;20476;-48
2022/10/09 10:06:03;;;;;;;34.90;32.80;;;;;;;15.62;99.54;102439.38;5031982;28;20432;-46
2022/10/09 10:08:33;;;;;;;35.07;33.03;;;;;;;15.61;99.01;102438.56;5031778;28;20941;-49
2022/10/09 10:11:03;;;;;;;35.47;33.67;;;;;;;15.65;99.72;102441.69;5031373;28;20463;-46
2022/10/09 10:13:34;;;;;;;33.43;31.63;;;;;;;15.75;99.75;102437.69;5031624;28;20831;-51
2022/10/09 10:16:03;;;;;;;32.90;31.10;;;;;;;15.73;96.71;102430.81;5032659;28;20502;-50
2022/10/09 10:18:39;;;;;;;34.00;32.20;;;;;;;15.85;97.61;102430.16;5031845;28;20805;-51
2022/10/09 10:21:11;;;;;;;31.10;29.60;;;;;;;15.91;95.18;102425.84;5031264;28;20474;-51
2022/10/09 10:23:41;;;;;;;34.00;32.00;;;;;;;15.96;92.99;102426.09;5031350;28;20900;-47
2022/10/09 10:26:20;;;;;;;31.47;29.80;;;;;;;16.02;93.25;102428.03;5031708;28;20428;-50
2022/10/09 10:28:54;;;;;;;31.80;30.00;;;;;;;16.14;94.12;102428.34;5031819;28;20436;-45
2022/10/09 10:31:47;;;;;;;32.23;30.20;;;;;;;16.22;90.79;102422.88;5031393;28;20814;-47
2022/10/09 10:34:22;;;;;;;30.83;29.07;;;;;;;16.17;87.53;102431.50;5031319;28;20456;-47
2022/10/09 10:36:56;;;;;;;30.00;28.17;;;;;;;16.25;87.54;102428.66;5031541;28;20987;-46
2022/10/09 10:39:36;;;;;;;30.47;28.63;;;;;;;16.34;87.40;102422.13;5031677;28;20866;-50
2022/10/09 10:42:15;;;;;;;29.27;27.80;;;;;;;16.45;85.64;102424.31;5031246;28;20455;-52
2022/10/09 10:44:50;;;;;;;29.23;28.03;;;;;;;16.47;87.21;102422.25;5031056;28;20530;-47
2022/10/09 10:47:23;;;;;;;28.23;26.83;;;;;;;16.52;89.13;102413.56;5031671;28;20427;-45
2022/10/09 10:49:52;;;;;;;26.83;25.40;;;;;;;16.47;87.21;102416.88;5031628;28;20440;-47
2022/10/09 10:52:35;;;;;;;29.37;27.70;;;;;;;16.88;90.53;102410.75;5031031;28;20456;-46
2022/10/09 10:55:15;;;;;;;28.07;26.77;;;;;;;16.97;85.30;102414.97;5031603;28;20852;-52
2022/10/09 10:57:51;;;;;;;26.33;25.03;;;;;;;16.81;83.42;102413.44;5031527;28;20653;-50
2022/10/09 11:00:19;;;;;;;27.10;25.00;;;;;;;16.55;78.85;102414.06;5031281;28;20474;-45
2022/10/09 11:03:01;;;;;;;25.00;23.87;;;;;;;16.49;82.22;102419.34;5032323;28;20482;-51
2022/10/09 11:05:41;;;;;;;23.27;22.17;;;;;;;16.47;83.70;102411.47;5035475;28;20475;-47
2022/10/09 11:08:25;;;;;;;24.10;22.97;;;;;;;16.57;84.96;102414.72;5035369;28;20439;-46
2022/10/09 11:11:02;;;;;;;24.03;22.30;;;;;;;16.74;82.99;102407.16;5034843;28;20452;-47
2022/10/09 11:13:33;;;;;;;22.73;21.50;;;;;;;17.00;80.97;102414.56;5034622;28;20463;-47
2022/10/09 11:16:14;;;;;;;23.20;22.03;;;;;;;17.26;80.24;102403.94;5035157;28;20431;-50
2022/10/09 11:18:54;;;;;;;20.30;19.30;;;;;;;17.36;75.99;102400.84;5035243;28;20462;-50
2022/10/09 11:21:35;;;;;;;19.60;18.60;;;;;;;17.44;76.16;102403.41;5034705;28;20448;-49